KHTS/HTS METAR and TAF weather

Enter ICAO airport designator
Station Type Date Time Source
KHTS METAR 2020/01/17 22:51 UTC NOAA

KHTS 172251Z 09009KT 10SM SCT120 01/M08 A3057 RMK AO2 SLP360 T00111083


Station Type Date Time Source
KHTS Decoded METAR 2020/01/17 22:51 UTC NOAA

TRI-STATE AIRPORT, WV, United States (KHTS) 38-22N 082-33W 254M
Jan 17, 2020 - 05:51 PM EST / 2020.01.17 2251 UTC
Wind: from the E (090 degrees) at 10 MPH (9 KT):0
Visibility: 10 mile(s):0
Sky conditions: partly cloudy
Temperature: 34.0 F (1.1 C)
Windchill: 26 F (-3 C):1
Dew Point: 17.1 F (-8.3 C)
Relative Humidity: 49%
Pressure (altimeter): 30.57 in. Hg (1035 hPa)
ob: KHTS 172251Z 09009KT 10SM SCT120 01/M08 A3057 RMK AO2 SLP360 T00111083
cycle: 23

Station Type Date Time Source
KHTS TAF 2020/01/17 18:45 UTC NOAA

TAF KHTS 171742Z 1718/1818 08006KT P6SM SCT250
FM180700 11005KT P6SM OVC090
FM181000 14007KT P6SM -RA OVC050
FM181500 18012G18KT P6SM -RA OVC040
FM181700 20012G18KT P6SM RA OVC030

Example: see airport list